aviador You're here:

EGUL Decoded Metar

LAKENHEATH in ENGLAND
Report Time2017-11-24 20:56:00
UTC Time2017-11-24 21:55:57
Flight Rules vfr VFR
WindCalm
Visibility9999 m
Phenomena:N/A
Clouds:N/A
CeilingNone
Temp-2°C (ISA -17)
Dew Point-2°C (100% RH)
AAT-4.3°C
QNH1012 hPa
Density Alt-1,939 ft
Elevation33 ft
Report Wrong Elevation
Raw Report
EGUL 242056Z AUTO 00000KT 9999 CLR M02/M02 A2987 RMK AO2 SLP119
T10181018 50002=

Extra information for EGUL:More info

Metar Taf Metar & Taf Last 4 Metars F.Rules Stats Wind Profile Meteogram Temp Stats Airport Information Weather charts Add Link Nearby VenuesMetar ALERT Operation Metar Decoded Social comments